sensor_id;sensor_type;location;lat;lon;timestamp;pressure;altitude;pressure_sealevel;temperature;humidity
37486;BME280;23341;50.296;18.960;2023-03-03T00:03:42;44171.59;;;-144.43;100.00
37486;BME280;23341;50.296;18.960;2023-03-03T00:08:47;44041.84;;;-144.43;100.00
37486;BME280;23341;50.296;18.960;2023-03-03T00:13:54;44065.81;;;-144.43;100.00
37486;BME280;23341;50.296;18.960;2023-03-03T00:18:59;43964.00;;;-144.43;100.00
37486;BME280;23341;50.296;18.960;2023-03-03T00:24:24;43950.03;;;-144.43;100.00
37486;BME280;23341;50.296;18.960;2023-03-03T00:29:40;43860.22;;;-144.43;100.00
37486;BME280;23341;50.296;18.960;2023-03-03T00:34:49;43752.44;;;-144.43;100.00
37486;BME280;23341;50.296;18.960;2023-03-03T00:39:58;43646.66;;;-144.43;100.00
37486;BME280;23341;50.296;18.960;2023-03-03T00:45:17;43552.88;;;-144.43;100.00
37486;BME280;23341;50.296;18.960;2023-03-03T00:50:29;43495.00;;;-144.43;100.00
37486;BME280;23341;50.296;18.960;2023-03-03T00:55:34;43419.16;;;-144.43;100.00
37486;BME280;23341;50.296;18.960;2023-03-03T01:00:41;43427.16;;;-144.43;100.00
37486;BME280;23341;50.296;18.960;2023-03-03T01:05:50;43401.19;;;-144.43;100.00
37486;BME280;23341;50.296;18.960;2023-03-03T01:10:56;43407.19;;;-144.43;100.00
37486;BME280;23341;50.296;18.960;2023-03-03T01:16:04;43309.41;;;-144.43;100.00
37486;BME280;23341;50.296;18.960;2023-03-03T01:21:09;43247.53;;;-144.43;100.00
37486;BME280;23341;50.296;18.960;2023-03-03T01:26:14;43227.59;;;-144.43;100.00
37486;BME280;23341;50.296;18.960;2023-03-03T01:31:21;43121.81;;;-144.43;100.00
37486;BME280;23341;50.296;18.960;2023-03-03T01:36:27;43143.78;;;-144.43;100.00
37486;BME280;23341;50.296;18.960;2023-03-03T01:41:32;43153.75;;;-144.43;100.00
37486;BME280;23341;50.296;18.960;2023-03-03T01:46:53;43249.53;;;-144.43;100.00
37486;BME280;23341;50.296;18.960;2023-03-03T01:52:00;43165.72;;;-144.43;100.00
37486;BME280;23341;50.296;18.960;2023-03-03T01:57:10;43091.91;;;-144.43;100.00
37486;BME280;23341;50.296;18.960;2023-03-03T02:02:19;42946.22;;;-144.43;100.00
37486;BME280;23341;50.296;18.960;2023-03-03T02:07:24;42894.34;;;-144.43;100.00
37486;BME280;23341;50.296;18.960;2023-03-03T02:12:35;42892.34;;;-144.43;100.00
37486;BME280;23341;50.296;18.960;2023-03-03T02:17:42;42840.47;;;-144.43;100.00
37486;BME280;23341;50.296;18.960;2023-03-03T02:22:52;42982.16;;;-144.43;100.00
37486;BME280;23341;50.296;18.960;2023-03-03T02:27:59;42978.16;;;-144.43;100.00
37486;BME280;23341;50.296;18.960;2023-03-03T02:33:05;42962.19;;;-144.43;100.00
37486;BME280;23341;50.296;18.960;2023-03-03T02:38:16;42936.25;;;-144.43;100.00
37486;BME280;23341;50.296;18.960;2023-03-03T02:43:27;42874.41;;;-144.43;100.00
37486;BME280;23341;50.296;18.960;2023-03-03T02:48:33;42870.41;;;-144.43;100.00
37486;BME280;23341;50.296;18.960;2023-03-03T02:53:39;42912.31;;;-144.43;100.00
37486;BME280;23341;50.296;18.960;2023-03-03T02:58:45;42980.16;;;-144.43;100.00
37486;BME280;23341;50.296;18.960;2023-03-03T03:03:50;42980.16;;;-144.43;100.00
37486;BME280;23341;50.296;18.960;2023-03-03T03:08:57;42954.22;;;-144.43;100.00
37486;BME280;23341;50.296;18.960;2023-03-03T03:14:06;42926.28;;;-144.43;100.00
37486;BME280;23341;50.296;18.960;2023-03-03T03:19:13;42928.28;;;-144.43;100.00
37486;BME280;23341;50.296;18.960;2023-03-03T03:24:19;42910.31;;;-144.43;100.00
37486;BME280;23341;50.296;18.960;2023-03-03T03:29:31;42858.44;;;-144.43;100.00
37486;BME280;23341;50.296;18.960;2023-03-03T03:34:36;42702.81;;;-144.43;100.00
37486;BME280;23341;50.296;18.960;2023-03-03T03:39:40;42774.63;;;-144.43;100.00
37486;BME280;23341;50.296;18.960;2023-03-03T03:44:47;42668.88;;;-144.43;100.00
37486;BME280;23341;50.296;18.960;2023-03-03T03:49:53;42595.06;;;-144.43;100.00
37486;BME280;23341;50.296;18.960;2023-03-03T03:54:58;42557.16;;;-144.43;100.00
37486;BME280;23341;50.296;18.960;2023-03-03T04:00:06;42473.34;;;-144.43;100.00
37486;BME280;23341;50.296;18.960;2023-03-03T04:05:24;42393.53;;;-144.43;100.00
37486;BME280;23341;50.296;18.960;2023-03-03T04:10:29;42391.56;;;-144.43;100.00
37486;BME280;23341;50.296;18.960;2023-03-03T04:15:35;42373.59;;;-144.43;100.00
37486;BME280;23341;50.296;18.960;2023-03-03T04:20:40;42325.72;;;-144.43;100.00
37486;BME280;23341;50.296;18.960;2023-03-03T04:25:46;42293.78;;;-144.43;100.00
37486;BME280;23341;50.296;18.960;2023-03-03T04:30:53;42273.84;;;-144.43;100.00
37486;BME280;23341;50.296;18.960;2023-03-03T04:35:59;42215.97;;;-144.43;100.00
37486;BME280;23341;50.296;18.960;2023-03-03T04:41:04;42217.97;;;-144.43;100.00
37486;BME280;23341;50.296;18.960;2023-03-03T04:46:13;42208.00;;;-144.43;100.00
37486;BME280;23341;50.296;18.960;2023-03-03T04:51:17;42245.91;;;-144.43;100.00
37486;BME280;23341;50.296;18.960;2023-03-03T04:56:22;42259.88;;;-144.43;100.00
37486;BME280;23341;50.296;18.960;2023-03-03T05:01:28;42241.91;;;-144.43;100.00
37486;BME280;23341;50.296;18.960;2023-03-03T05:06:32;42164.13;;;-144.43;100.00
37486;BME280;23341;50.296;18.960;2023-03-03T05:11:37;42068.34;;;-144.43;100.00
37486;BME280;23341;50.296;18.960;2023-03-03T05:16:43;42034.44;;;-144.43;100.00
37486;BME280;23341;50.296;18.960;2023-03-03T05:21:47;42076.34;;;-144.43;100.00
37486;BME280;23341;50.296;18.960;2023-03-03T05:26:51;42124.22;;;-144.43;100.00
37486;BME280;23341;50.296;18.960;2023-03-03T05:31:57;42032.44;;;-144.43;100.00
37486;BME280;23341;50.296;18.960;2023-03-03T05:37:02;42044.41;;;-144.43;100.00
37486;BME280;23341;50.296;18.960;2023-03-03T05:42:10;42012.50;;;-144.43;100.00
37486;BME280;23341;50.296;18.960;2023-03-03T05:47:16;42219.97;;;-144.43;100.00
37486;BME280;23341;50.296;18.960;2023-03-03T05:52:20;42215.97;;;-144.43;100.00
37486;BME280;23341;50.296;18.960;2023-03-03T05:57:26;42343.66;;;-144.43;100.00
37486;BME280;23341;50.296;18.960;2023-03-03T06:02:32;42469.34;;;-144.43;100.00
37486;BME280;23341;50.296;18.960;2023-03-03T06:07:37;42561.13;;;-144.43;100.00
37486;BME280;23341;50.296;18.960;2023-03-03T06:12:43;42744.69;;;-144.43;100.00
37486;BME280;23341;50.296;18.960;2023-03-03T06:17:49;42756.66;;;-144.43;100.00
37486;BME280;23341;50.296;18.960;2023-03-03T06:22:53;42806.56;;;-144.43;100.00
37486;BME280;23341;50.296;18.960;2023-03-03T06:27:57;42936.25;;;-144.43;100.00
37486;BME280;23341;50.296;18.960;2023-03-03T06:33:03;42900.34;;;-144.43;100.00
37486;BME280;23341;50.296;18.960;2023-03-03T06:38:08;43048.00;;;-144.43;100.00
37486;BME280;23341;50.296;18.960;2023-03-03T06:43:12;42954.22;;;-144.43;100.00
37486;BME280;23341;50.296;18.960;2023-03-03T06:48:18;43008.09;;;-144.43;100.00
37486;BME280;23341;50.296;18.960;2023-03-03T06:53:24;42892.34;;;-144.43;100.00
37486;BME280;23341;50.296;18.960;2023-03-03T06:58:29;43067.94;;;-144.43;100.00
37486;BME280;23341;50.296;18.960;2023-03-03T07:03:36;43143.78;;;-144.43;100.00
37486;BME280;23341;50.296;18.960;2023-03-03T07:08:40;43265.50;;;-144.43;100.00
37486;BME280;23341;50.296;18.960;2023-03-03T07:13:46;43187.69;;;-144.43;100.00
37486;BME280;23341;50.296;18.960;2023-03-03T07:18:54;43271.50;;;-144.43;100.00
37486;BME280;23341;50.296;18.960;2023-03-03T07:24:00;43391.22;;;-144.43;100.00
37486;BME280;23341;50.296;18.960;2023-03-03T07:29:20;43506.97;;;-144.43;100.00
37486;BME280;23341;50.296;18.960;2023-03-03T07:34:35;43566.84;;;-144.43;100.00
37486;BME280;23341;50.296;18.960;2023-03-03T07:39:42;43650.66;;;-144.43;100.00
37486;BME280;23341;50.296;18.960;2023-03-03T07:44:49;43634.69;;;-144.43;100.00
37486;BME280;23341;50.296;18.960;2023-03-03T07:49:58;43584.81;;;-144.43;100.00
37486;BME280;23341;50.296;18.960;2023-03-03T07:55:23;43530.91;;;-144.43;100.00
37486;BME280;23341;50.296;18.960;2023-03-03T08:06:30;43195.66;;;-144.43;100.00
37486;BME280;23341;50.296;18.960;2023-03-03T08:11:46;43363.28;;;-144.43;100.00
37486;BME280;23341;50.296;18.960;2023-03-03T08:16:52;43299.44;;;-144.43;100.00
37486;BME280;23341;50.296;18.960;2023-03-03T08:22:05;43257.53;;;-144.43;100.00
37486;BME280;23341;50.296;18.960;2023-03-03T08:27:12;43303.41;;;-144.43;100.00
37486;BME280;23341;50.296;18.960;2023-03-03T08:32:16;43317.38;;;-144.43;100.00
37486;BME280;23341;50.296;18.960;2023-03-03T08:37:22;43251.53;;;-144.43;100.00
37486;BME280;23341;50.296;18.960;2023-03-03T08:42:26;43081.91;;;-144.43;100.00
37486;BME280;23341;50.296;18.960;2023-03-03T08:47:32;42988.13;;;-144.43;100.00
37486;BME280;23341;50.296;18.960;2023-03-03T08:52:37;42914.31;;;-144.43;100.00
37486;BME280;23341;50.296;18.960;2023-03-03T08:57:42;42764.66;;;-144.43;100.00
37486;BME280;23341;50.296;18.960;2023-03-03T09:02:46;42780.63;;;-144.43;100.00
37486;BME280;23341;50.296;18.960;2023-03-03T09:07:54;42864.41;;;-144.43;100.00
37486;BME280;23341;50.296;18.960;2023-03-03T09:13:02;42872.41;;;-144.43;100.00
37486;BME280;23341;50.296;18.960;2023-03-03T09:18:13;42832.50;;;-144.43;100.00
37486;BME280;23341;50.296;18.960;2023-03-03T09:23:31;42860.44;;;-144.43;100.00
37486;BME280;23341;50.296;18.960;2023-03-03T09:28:36;42786.59;;;-144.43;100.00
37486;BME280;23341;50.296;18.960;2023-03-03T09:33:43;42824.50;;;-144.43;100.00
37486;BME280;23341;50.296;18.960;2023-03-03T09:38:49;42896.34;;;-144.43;100.00
37486;BME280;23341;50.296;18.960;2023-03-03T09:44:11;42958.19;;;-144.43;100.00
37486;BME280;23341;50.296;18.960;2023-03-03T09:49:28;43028.03;;;-144.43;100.00
37486;BME280;23341;50.296;18.960;2023-03-03T09:54:46;43008.09;;;-144.43;100.00
37486;BME280;23341;50.296;18.960;2023-03-03T10:05:32;42772.63;;;-144.43;100.00
37486;BME280;23341;50.296;18.960;2023-03-03T10:10:50;43014.06;;;-144.43;100.00
37486;BME280;23341;50.296;18.960;2023-03-03T10:16:09;43061.97;;;-144.43;100.00
37486;BME280;23341;50.296;18.960;2023-03-03T10:21:22;42984.13;;;-144.43;100.00
37486;BME280;23341;50.296;18.960;2023-03-03T10:26:47;43030.03;;;-144.43;100.00
37486;BME280;23341;50.296;18.960;2023-03-03T10:32:30;43061.97;;;-144.43;100.00
37486;BME280;23341;50.296;18.960;2023-03-03T10:37:45;43159.75;;;-144.43;100.00
37486;BME280;23341;50.296;18.960;2023-03-03T10:49:00;43153.75;;;-144.43;100.00
37486;BME280;23341;50.296;18.960;2023-03-03T10:54:18;43263.50;;;-144.43;100.00
37486;BME280;23341;50.296;18.960;2023-03-03T10:59:51;43277.47;;;-144.43;100.00
37486;BME280;23341;50.296;18.960;2023-03-03T11:05:28;43339.34;;;-144.43;100.00
37486;BME280;23341;50.296;18.960;2023-03-03T11:10:47;43311.41;;;-144.43;100.00
37486;BME280;23341;50.296;18.960;2023-03-03T11:16:23;43447.09;;;-144.43;100.00
37486;BME280;23341;50.296;18.960;2023-03-03T11:21:35;43502.97;;;-144.43;100.00
37486;BME280;23341;50.296;18.960;2023-03-03T11:27:02;43516.94;;;-144.43;100.00
37486;BME280;23341;50.296;18.960;2023-03-03T11:32:19;43516.94;;;-144.43;100.00
37486;BME280;23341;50.296;18.960;2023-03-03T11:37:31;43415.16;;;-144.43;100.00
37486;BME280;23341;50.296;18.960;2023-03-03T11:42:48;43397.22;;;-144.43;100.00
37486;BME280;23341;50.296;18.960;2023-03-03T11:48:01;43459.06;;;-144.43;100.00
37486;BME280;23341;50.296;18.960;2023-03-03T11:59:04;43447.09;;;-144.43;100.00
37486;BME280;23341;50.296;18.960;2023-03-03T12:04:13;43473.03;;;-144.43;100.00
37486;BME280;23341;50.296;18.960;2023-03-03T12:09:29;43491.00;;;-144.43;100.00
37486;BME280;23341;50.296;18.960;2023-03-03T12:14:48;43560.84;;;-144.43;100.00
37486;BME280;23341;50.296;18.960;2023-03-03T12:20:02;43722.50;;;-144.43;100.00
37486;BME280;23341;50.296;18.960;2023-03-03T12:25:21;43810.31;;;-144.43;100.00
37486;BME280;23341;50.296;18.960;2023-03-03T12:30:38;44133.66;;;-144.43;99.73
37486;BME280;23341;50.296;18.960;2023-03-03T12:35:53;44217.50;;;-144.43;98.87
37486;BME280;23341;50.296;18.960;2023-03-03T12:41:06;44197.53;;;-144.43;100.00
37486;BME280;23341;50.296;18.960;2023-03-03T12:46:19;44201.53;;;-144.43;100.00
37486;BME280;23341;50.296;18.960;2023-03-03T12:51:42;44197.53;;;-144.43;100.00
37486;BME280;23341;50.296;18.960;2023-03-03T12:56:53;44237.47;;;-144.43;99.64
37486;BME280;23341;50.296;18.960;2023-03-03T13:02:09;44211.50;;;-144.43;100.00
37486;BME280;23341;50.296;18.960;2023-03-03T13:07:23;44167.59;;;-144.43;100.00
37486;BME280;23341;50.296;18.960;2023-03-03T13:12:34;44165.59;;;-144.43;100.00
37486;BME280;23341;50.296;18.960;2023-03-03T13:17:49;44171.59;;;-144.43;100.00
37486;BME280;23341;50.296;18.960;2023-03-03T13:23:04;44191.53;;;-144.43;100.00
37486;BME280;23341;50.296;18.960;2023-03-03T13:28:16;44177.56;;;-144.43;100.00
37486;BME280;23341;50.296;18.960;2023-03-03T13:33:26;44247.44;;;-144.43;100.00
37486;BME280;23341;50.296;18.960;2023-03-03T13:38:35;44321.28;;;-144.43;100.00
37486;BME280;23341;50.296;18.960;2023-03-03T13:43:46;44275.38;;;-144.43;100.00
37486;BME280;23341;50.296;18.960;2023-03-03T13:49:06;44375.19;;;-144.43;99.10
37486;BME280;23341;50.296;18.960;2023-03-03T13:54:28;44433.06;;;-144.43;99.10
37486;BME280;23341;50.296;18.960;2023-03-03T13:59:43;44361.22;;;-144.43;100.00
37486;BME280;23341;50.296;18.960;2023-03-03T14:04:52;44365.19;;;-144.43;98.59
37486;BME280;23341;50.296;18.960;2023-03-03T14:10:08;44465.00;;;-144.43;97.83
37486;BME280;23341;50.296;18.960;2023-03-03T14:15:23;44469.00;;;-144.43;98.02
37486;BME280;23341;50.296;18.960;2023-03-03T14:20:31;44425.09;;;-144.43;100.00
37486;BME280;23341;50.296;18.960;2023-03-03T14:25:53;44401.13;;;-144.43;100.00
37486;BME280;23341;50.296;18.960;2023-03-03T14:31:13;44441.06;;;-144.43;100.00
37486;BME280;23341;50.296;18.960;2023-03-03T14:36:18;44413.09;;;-144.43;100.00
37486;BME280;23341;50.296;18.960;2023-03-03T14:41:39;44443.06;;;-144.43;99.28
37486;BME280;23341;50.296;18.960;2023-03-03T14:46:44;44469.00;;;-144.43;99.41
37486;BME280;23341;50.296;18.960;2023-03-03T14:51:48;44459.03;;;-144.43;100.00
37486;BME280;23341;50.296;18.960;2023-03-03T14:57:01;44389.16;;;-144.43;100.00
37486;BME280;23341;50.296;18.960;2023-03-03T15:07:50;44393.16;;;-144.43;100.00
37486;BME280;23341;50.296;18.960;2023-03-03T15:12:57;44371.19;;;-144.43;100.00
37486;BME280;23341;50.296;18.960;2023-03-03T15:18:09;44369.19;;;-144.43;100.00
37486;BME280;23341;50.296;18.960;2023-03-03T15:23:39;44255.41;;;-144.43;100.00
37486;BME280;23341;50.296;18.960;2023-03-03T15:28:56;44181.56;;;-144.43;100.00
37486;BME280;23341;50.296;18.960;2023-03-03T15:34:17;44195.53;;;-144.43;100.00
37486;BME280;23341;50.296;18.960;2023-03-03T15:39:29;44253.44;;;-144.43;100.00
37486;BME280;23341;50.296;18.960;2023-03-03T15:44:48;44203.53;;;-144.43;100.00
37486;BME280;23341;50.296;18.960;2023-03-03T15:50:33;44189.56;;;-144.43;100.00
37486;BME280;23341;50.296;18.960;2023-03-03T15:55:54;44109.72;;;-144.43;100.00
37486;BME280;23341;50.296;18.960;2023-03-03T16:01:06;44103.72;;;-144.43;100.00
37486;BME280;23341;50.296;18.960;2023-03-03T16:06:17;44083.75;;;-144.43;100.00
37486;BME280;23341;50.296;18.960;2023-03-03T16:11:27;44073.78;;;-144.43;100.00
37486;BME280;23341;50.296;18.960;2023-03-03T16:16:42;44133.66;;;-144.43;100.00
37486;BME280;23341;50.296;18.960;2023-03-03T16:22:02;44107.72;;;-144.43;100.00
37486;BME280;23341;50.296;18.960;2023-03-03T16:27:13;43918.09;;;-144.43;100.00
37486;BME280;23341;50.296;18.960;2023-03-03T16:32:27;43770.41;;;-144.43;100.00
37486;BME280;23341;50.296;18.960;2023-03-03T16:37:40;43726.50;;;-144.43;100.00
37486;BME280;23341;50.296;18.960;2023-03-03T16:42:58;43630.72;;;-144.43;100.00
37486;BME280;23341;50.296;18.960;2023-03-03T16:48:13;43451.09;;;-144.43;100.00
37486;BME280;23341;50.296;18.960;2023-03-03T16:53:45;43231.56;;;-144.43;100.00
37486;BME280;23341;50.296;18.960;2023-03-03T16:59:05;43155.75;;;-144.43;100.00
37486;BME280;23341;50.296;18.960;2023-03-03T17:04:33;43149.75;;;-144.43;100.00
37486;BME280;23341;50.296;18.960;2023-03-03T17:10:04;43153.75;;;-144.43;100.00
37486;BME280;23341;50.296;18.960;2023-03-03T17:15:34;43187.69;;;-144.43;100.00
37486;BME280;23341;50.296;18.960;2023-03-03T17:20:47;43079.91;;;-144.43;100.00
37486;BME280;23341;50.296;18.960;2023-03-03T17:25:56;42986.13;;;-144.43;100.00
37486;BME280;23341;50.296;18.960;2023-03-03T17:31:07;42884.38;;;-144.43;100.00
37486;BME280;23341;50.296;18.960;2023-03-03T17:36:26;42858.44;;;-144.43;100.00
37486;BME280;23341;50.296;18.960;2023-03-03T17:41:39;42944.22;;;-144.43;100.00
37486;BME280;23341;50.296;18.960;2023-03-03T17:46:50;42886.38;;;-144.43;100.00
37486;BME280;23341;50.296;18.960;2023-03-03T17:57:50;42477.34;;;-144.43;100.00
37486;BME280;23341;50.296;18.960;2023-03-03T18:03:25;42397.53;;;-144.43;100.00
37486;BME280;23341;50.296;18.960;2023-03-03T18:08:45;42525.22;;;-144.43;100.00
37486;BME280;23341;50.296;18.960;2023-03-03T18:14:24;42692.81;;;-144.43;100.00
37486;BME280;23341;50.296;18.960;2023-03-03T18:19:49;42521.22;;;-144.43;100.00
37486;BME280;23341;50.296;18.960;2023-03-03T18:25:03;42539.19;;;-144.43;100.00
37486;BME280;23341;50.296;18.960;2023-03-03T18:30:42;42565.13;;;-144.43;100.00
37486;BME280;23341;50.296;18.960;2023-03-03T18:36:11;42301.78;;;-144.43;100.00
37486;BME280;23341;50.296;18.960;2023-03-03T18:41:24;42303.75;;;-144.43;100.00
37486;BME280;23341;50.296;18.960;2023-03-03T18:46:51;42082.31;;;-144.43;100.00
37486;BME280;23341;50.296;18.960;2023-03-03T18:52:18;42040.44;;;-144.43;100.00
37486;BME280;23341;50.296;18.960;2023-03-03T18:57:25;41950.66;;;-144.43;100.00
37486;BME280;23341;50.296;18.960;2023-03-03T19:02:34;41986.56;;;-144.43;100.00
37486;BME280;23341;50.296;18.960;2023-03-03T19:07:48;41896.78;;;-144.43;100.00
37486;BME280;23341;50.296;18.960;2023-03-03T19:12:55;41982.56;;;-144.43;100.00
37486;BME280;23341;50.296;18.960;2023-03-03T19:18:01;41984.56;;;-144.43;100.00
37486;BME280;23341;50.296;18.960;2023-03-03T19:23:12;41856.91;;;-144.43;100.00
37486;BME280;23341;50.296;18.960;2023-03-03T19:28:31;41759.16;;;-144.43;100.00
37486;BME280;23341;50.296;18.960;2023-03-03T19:33:47;41675.38;;;-144.43;100.00
37486;BME280;23341;50.296;18.960;2023-03-03T19:39:19;41629.50;;;-144.43;100.00
37486;BME280;23341;50.296;18.960;2023-03-03T19:44:42;41408.09;;;-144.43;100.00
37486;BME280;23341;50.296;18.960;2023-03-03T19:49:59;41310.34;;;-144.43;100.00
37486;BME280;23341;50.296;18.960;2023-03-03T19:55:21;41328.31;;;-144.43;100.00
37486;BME280;23341;50.296;18.960;2023-03-03T20:00:33;41372.19;;;-144.43;100.00
37486;BME280;23341;50.296;18.960;2023-03-03T20:05:43;41517.78;;;-144.43;100.00
37486;BME280;23341;50.296;18.960;2023-03-03T20:10:56;41390.13;;;-144.43;100.00
37486;BME280;23341;50.296;18.960;2023-03-03T20:16:15;41378.16;;;-144.43;100.00
37486;BME280;23341;50.296;18.960;2023-03-03T20:21:31;41376.16;;;-144.43;100.00
37486;BME280;23341;50.296;18.960;2023-03-03T20:26:44;41284.41;;;-144.43;100.00
37486;BME280;23341;50.296;18.960;2023-03-03T20:31:55;41308.34;;;-144.43;100.00
37486;BME280;23341;50.296;18.960;2023-03-03T20:37:09;41318.31;;;-144.43;100.00
37486;BME280;23341;50.296;18.960;2023-03-03T20:42:26;41376.16;;;-144.43;100.00
37486;BME280;23341;50.296;18.960;2023-03-03T20:47:43;41507.81;;;-144.43;100.00
37486;BME280;23341;50.296;18.960;2023-03-03T20:53:02;41517.78;;;-144.43;100.00
37486;BME280;23341;50.296;18.960;2023-03-03T20:58:13;41489.88;;;-144.43;100.00
37486;BME280;23341;50.296;18.960;2023-03-03T21:03:27;41559.69;;;-144.43;100.00
37486;BME280;23341;50.296;18.960;2023-03-03T21:08:46;41505.81;;;-144.43;100.00
37486;BME280;23341;50.296;18.960;2023-03-03T21:13:52;41519.78;;;-144.43;100.00
37486;BME280;23341;50.296;18.960;2023-03-03T21:19:00;41507.81;;;-144.43;100.00
37486;BME280;23341;50.296;18.960;2023-03-03T21:24:05;41457.94;;;-144.43;100.00
37486;BME280;23341;50.296;18.960;2023-03-03T21:29:15;41523.78;;;-144.43;100.00
37486;BME280;23341;50.296;18.960;2023-03-03T21:34:27;41499.84;;;-144.43;100.00
37486;BME280;23341;50.296;18.960;2023-03-03T21:39:32;41483.88;;;-144.43;100.00
37486;BME280;23341;50.296;18.960;2023-03-03T21:44:38;41495.84;;;-144.43;100.00
37486;BME280;23341;50.296;18.960;2023-03-03T21:49:45;41404.09;;;-144.43;100.00
37486;BME280;23341;50.296;18.960;2023-03-03T21:54:50;41581.63;;;-144.43;100.00
37486;BME280;23341;50.296;18.960;2023-03-03T21:59:55;41643.47;;;-144.43;100.00
37486;BME280;23341;50.296;18.960;2023-03-03T22:05:01;41627.50;;;-144.43;100.00
37486;BME280;23341;50.296;18.960;2023-03-03T22:10:06;41587.59;;;-144.43;100.00
37486;BME280;23341;50.296;18.960;2023-03-03T22:15:11;41509.81;;;-144.43;100.00
37486;BME280;23341;50.296;18.960;2023-03-03T22:20:17;41561.69;;;-144.43;100.00
37486;BME280;23341;50.296;18.960;2023-03-03T22:25:22;41613.53;;;-144.43;100.00
37486;BME280;23341;50.296;18.960;2023-03-03T22:30:27;41519.78;;;-144.43;100.00
37486;BME280;23341;50.296;18.960;2023-03-03T22:35:33;41483.88;;;-144.43;100.00
37486;BME280;23341;50.296;18.960;2023-03-03T22:40:37;41328.31;;;-144.43;100.00
37486;BME280;23341;50.296;18.960;2023-03-03T22:45:41;41320.31;;;-144.43;100.00
37486;BME280;23341;50.296;18.960;2023-03-03T22:50:48;41434.00;;;-144.43;100.00
37486;BME280;23341;50.296;18.960;2023-03-03T22:55:52;41352.25;;;-144.43;100.00
37486;BME280;23341;50.296;18.960;2023-03-03T23:00:57;41336.28;;;-144.43;100.00
37486;BME280;23341;50.296;18.960;2023-03-03T23:06:03;41422.03;;;-144.43;100.00
37486;BME280;23341;50.296;18.960;2023-03-03T23:11:08;41432.03;;;-144.43;100.00
37486;BME280;23341;50.296;18.960;2023-03-03T23:16:12;41422.03;;;-144.43;100.00
37486;BME280;23341;50.296;18.960;2023-03-03T23:21:18;41461.94;;;-144.43;100.00
37486;BME280;23341;50.296;18.960;2023-03-03T23:26:23;41447.97;;;-144.43;100.00
37486;BME280;23341;50.296;18.960;2023-03-03T23:31:27;41495.84;;;-144.43;100.00
37486;BME280;23341;50.296;18.960;2023-03-03T23:36:33;41531.75;;;-144.43;100.00
37486;BME280;23341;50.296;18.960;2023-03-03T23:41:38;41447.97;;;-144.43;100.00
37486;BME280;23341;50.296;18.960;2023-03-03T23:46:42;41440.00;;;-144.43;100.00
37486;BME280;23341;50.296;18.960;2023-03-03T23:51:48;41324.31;;;-144.43;100.00
37486;BME280;23341;50.296;18.960;2023-03-03T23:56:52;41300.38;;;-144.43;100.00
